sensor_id;sensor_type;location;lat;lon;timestamp;P1;durP1;ratioP1;P2;durP2;ratioP2
4563;SDS011;2294;51.818;8.484;2023-02-10T00:00:15;43.70;;;20.70;;
4563;SDS011;2294;51.818;8.484;2023-02-10T00:02:42;41.10;;;21.63;;
4563;SDS011;2294;51.818;8.484;2023-02-10T00:05:09;41.27;;;21.30;;
4563;SDS011;2294;51.818;8.484;2023-02-10T00:07:37;43.27;;;21.30;;
4563;SDS011;2294;51.818;8.484;2023-02-10T00:10:05;38.83;;;20.43;;
4563;SDS011;2294;51.818;8.484;2023-02-10T00:12:35;46.50;;;21.87;;
4563;SDS011;2294;51.818;8.484;2023-02-10T00:15:02;45.67;;;22.60;;
4563;SDS011;2294;51.818;8.484;2023-02-10T00:17:30;44.83;;;22.43;;
4563;SDS011;2294;51.818;8.484;2023-02-10T00:19:57;48.17;;;22.80;;
4563;SDS011;2294;51.818;8.484;2023-02-10T00:22:24;43.80;;;21.83;;
4563;SDS011;2294;51.818;8.484;2023-02-10T00:24:52;42.37;;;21.97;;
4563;SDS011;2294;51.818;8.484;2023-02-10T00:27:19;49.23;;;23.90;;
4563;SDS011;2294;51.818;8.484;2023-02-10T00:29:49;42.87;;;22.40;;
4563;SDS011;2294;51.818;8.484;2023-02-10T00:32:16;41.37;;;21.40;;
4563;SDS011;2294;51.818;8.484;2023-02-10T00:34:43;46.17;;;22.20;;
4563;SDS011;2294;51.818;8.484;2023-02-10T00:37:10;47.87;;;20.73;;
4563;SDS011;2294;51.818;8.484;2023-02-10T00:39:37;48.33;;;23.97;;
4563;SDS011;2294;51.818;8.484;2023-02-10T00:42:05;40.77;;;21.40;;
4563;SDS011;2294;51.818;8.484;2023-02-10T00:44:32;34.67;;;20.00;;
4563;SDS011;2294;51.818;8.484;2023-02-10T00:46:59;38.87;;;21.97;;
4563;SDS011;2294;51.818;8.484;2023-02-10T00:49:26;41.77;;;21.60;;
4563;SDS011;2294;51.818;8.484;2023-02-10T00:51:52;56.07;;;23.57;;
4563;SDS011;2294;51.818;8.484;2023-02-10T00:54:19;41.10;;;20.17;;
4563;SDS011;2294;51.818;8.484;2023-02-10T00:56:46;43.70;;;21.73;;
4563;SDS011;2294;51.818;8.484;2023-02-10T00:59:14;41.40;;;22.90;;
4563;SDS011;2294;51.818;8.484;2023-02-10T01:01:41;47.00;;;22.93;;
4563;SDS011;2294;51.818;8.484;2023-02-10T01:04:08;40.50;;;19.87;;
4563;SDS011;2294;51.818;8.484;2023-02-10T01:06:35;47.60;;;21.97;;
4563;SDS011;2294;51.818;8.484;2023-02-10T01:09:02;50.00;;;24.00;;
4563;SDS011;2294;51.818;8.484;2023-02-10T01:11:29;40.07;;;21.40;;
4563;SDS011;2294;51.818;8.484;2023-02-10T01:13:56;44.20;;;20.50;;
4563;SDS011;2294;51.818;8.484;2023-02-10T01:16:24;55.47;;;22.60;;
4563;SDS011;2294;51.818;8.484;2023-02-10T01:18:51;44.10;;;22.07;;
4563;SDS011;2294;51.818;8.484;2023-02-10T01:21:19;49.93;;;22.00;;
4563;SDS011;2294;51.818;8.484;2023-02-10T01:23:46;43.97;;;22.10;;
4563;SDS011;2294;51.818;8.484;2023-02-10T01:26:14;39.80;;;21.33;;
4563;SDS011;2294;51.818;8.484;2023-02-10T01:28:42;51.53;;;24.50;;
4563;SDS011;2294;51.818;8.484;2023-02-10T01:31:10;45.90;;;24.20;;
4563;SDS011;2294;51.818;8.484;2023-02-10T01:33:39;48.30;;;21.90;;
4563;SDS011;2294;51.818;8.484;2023-02-10T01:36:08;49.23;;;25.37;;
4563;SDS011;2294;51.818;8.484;2023-02-10T01:38:38;45.23;;;22.17;;
4563;SDS011;2294;51.818;8.484;2023-02-10T01:41:05;39.30;;;22.80;;
4563;SDS011;2294;51.818;8.484;2023-02-10T01:43:32;45.70;;;22.17;;
4563;SDS011;2294;51.818;8.484;2023-02-10T01:46:00;53.77;;;24.47;;
4563;SDS011;2294;51.818;8.484;2023-02-10T01:48:27;40.60;;;21.20;;
4563;SDS011;2294;51.818;8.484;2023-02-10T01:50:56;49.80;;;24.00;;
4563;SDS011;2294;51.818;8.484;2023-02-10T01:53:27;45.73;;;22.73;;
4563;SDS011;2294;51.818;8.484;2023-02-10T01:55:56;47.87;;;22.90;;
4563;SDS011;2294;51.818;8.484;2023-02-10T01:58:27;47.03;;;22.80;;
4563;SDS011;2294;51.818;8.484;2023-02-10T02:00:57;51.57;;;24.00;;
4563;SDS011;2294;51.818;8.484;2023-02-10T02:03:25;52.33;;;24.30;;
4563;SDS011;2294;51.818;8.484;2023-02-10T02:05:52;50.10;;;22.90;;
4563;SDS011;2294;51.818;8.484;2023-02-10T02:08:21;46.70;;;23.80;;
4563;SDS011;2294;51.818;8.484;2023-02-10T02:11:01;39.10;;;21.70;;
4563;SDS011;2294;51.818;8.484;2023-02-10T02:13:56;43.77;;;23.47;;
4563;SDS011;2294;51.818;8.484;2023-02-10T02:16:40;45.33;;;21.13;;
4563;SDS011;2294;51.818;8.484;2023-02-10T02:19:19;63.80;;;26.83;;
4563;SDS011;2294;51.818;8.484;2023-02-10T02:22:14;52.37;;;25.33;;
4563;SDS011;2294;51.818;8.484;2023-02-10T02:25:03;45.10;;;22.40;;
4563;SDS011;2294;51.818;8.484;2023-02-10T02:30:45;47.07;;;23.10;;
4563;SDS011;2294;51.818;8.484;2023-02-10T02:33:21;50.70;;;23.40;;
4563;SDS011;2294;51.818;8.484;2023-02-10T02:35:52;50.53;;;23.60;;
4563;SDS011;2294;51.818;8.484;2023-02-10T02:38:23;50.87;;;23.67;;
4563;SDS011;2294;51.818;8.484;2023-02-10T02:40:50;44.70;;;22.70;;
4563;SDS011;2294;51.818;8.484;2023-02-10T02:43:17;49.77;;;23.00;;
4563;SDS011;2294;51.818;8.484;2023-02-10T02:45:46;49.67;;;23.40;;
4563;SDS011;2294;51.818;8.484;2023-02-10T02:48:29;46.73;;;23.90;;
4563;SDS011;2294;51.818;8.484;2023-02-10T02:51:09;48.90;;;24.67;;
4563;SDS011;2294;51.818;8.484;2023-02-10T02:53:43;43.27;;;22.43;;
4563;SDS011;2294;51.818;8.484;2023-02-10T02:56:16;49.47;;;22.60;;
4563;SDS011;2294;51.818;8.484;2023-02-10T02:58:51;51.83;;;23.73;;
4563;SDS011;2294;51.818;8.484;2023-02-10T03:01:23;54.07;;;24.97;;
4563;SDS011;2294;51.818;8.484;2023-02-10T03:03:57;51.00;;;24.07;;
4563;SDS011;2294;51.818;8.484;2023-02-10T03:06:24;56.87;;;26.13;;
4563;SDS011;2294;51.818;8.484;2023-02-10T03:08:51;48.60;;;24.53;;
4563;SDS011;2294;51.818;8.484;2023-02-10T03:11:19;45.87;;;24.37;;
4563;SDS011;2294;51.818;8.484;2023-02-10T03:13:46;48.07;;;23.70;;
4563;SDS011;2294;51.818;8.484;2023-02-10T03:16:13;49.43;;;23.40;;
4563;SDS011;2294;51.818;8.484;2023-02-10T03:18:40;53.10;;;24.00;;
4563;SDS011;2294;51.818;8.484;2023-02-10T03:21:08;45.03;;;23.77;;
4563;SDS011;2294;51.818;8.484;2023-02-10T03:23:35;48.50;;;23.60;;
4563;SDS011;2294;51.818;8.484;2023-02-10T03:26:02;54.23;;;24.90;;
4563;SDS011;2294;51.818;8.484;2023-02-10T03:28:29;48.03;;;22.30;;
4563;SDS011;2294;51.818;8.484;2023-02-10T03:30:56;50.73;;;23.30;;
4563;SDS011;2294;51.818;8.484;2023-02-10T03:33:23;48.33;;;24.60;;
4563;SDS011;2294;51.818;8.484;2023-02-10T03:35:50;45.13;;;22.37;;
4563;SDS011;2294;51.818;8.484;2023-02-10T03:38:18;52.07;;;23.87;;
4563;SDS011;2294;51.818;8.484;2023-02-10T03:40:48;47.00;;;23.70;;
4563;SDS011;2294;51.818;8.484;2023-02-10T03:43:15;49.03;;;24.20;;
4563;SDS011;2294;51.818;8.484;2023-02-10T03:45:42;46.77;;;22.17;;
4563;SDS011;2294;51.818;8.484;2023-02-10T03:48:09;49.47;;;24.43;;
4563;SDS011;2294;51.818;8.484;2023-02-10T03:50:37;41.20;;;21.70;;
4563;SDS011;2294;51.818;8.484;2023-02-10T03:53:04;61.83;;;23.90;;
4563;SDS011;2294;51.818;8.484;2023-02-10T03:55:33;47.80;;;23.43;;
4563;SDS011;2294;51.818;8.484;2023-02-10T03:58:00;49.87;;;24.57;;
4563;SDS011;2294;51.818;8.484;2023-02-10T04:00:27;43.17;;;22.73;;
4563;SDS011;2294;51.818;8.484;2023-02-10T04:02:55;56.43;;;23.67;;
4563;SDS011;2294;51.818;8.484;2023-02-10T04:05:22;57.47;;;24.40;;
4563;SDS011;2294;51.818;8.484;2023-02-10T04:07:49;42.60;;;23.10;;
4563;SDS011;2294;51.818;8.484;2023-02-10T04:10:16;49.50;;;23.17;;
4563;SDS011;2294;51.818;8.484;2023-02-10T04:12:44;58.27;;;23.53;;
4563;SDS011;2294;51.818;8.484;2023-02-10T04:15:11;50.30;;;22.53;;
4563;SDS011;2294;51.818;8.484;2023-02-10T04:17:38;53.57;;;25.20;;
4563;SDS011;2294;51.818;8.484;2023-02-10T04:20:05;62.67;;;22.07;;
4563;SDS011;2294;51.818;8.484;2023-02-10T04:22:33;55.70;;;23.50;;
4563;SDS011;2294;51.818;8.484;2023-02-10T04:24:59;52.33;;;23.47;;
4563;SDS011;2294;51.818;8.484;2023-02-10T04:27:26;60.70;;;22.90;;
4563;SDS011;2294;51.818;8.484;2023-02-10T04:29:55;55.70;;;25.30;;
4563;SDS011;2294;51.818;8.484;2023-02-10T04:32:22;49.50;;;24.80;;
4563;SDS011;2294;51.818;8.484;2023-02-10T04:34:48;51.63;;;22.83;;
4563;SDS011;2294;51.818;8.484;2023-02-10T04:37:15;68.43;;;25.10;;
4563;SDS011;2294;51.818;8.484;2023-02-10T04:39:42;50.50;;;25.00;;
4563;SDS011;2294;51.818;8.484;2023-02-10T04:42:09;59.00;;;25.00;;
4563;SDS011;2294;51.818;8.484;2023-02-10T04:44:36;56.53;;;25.73;;
4563;SDS011;2294;51.818;8.484;2023-02-10T04:47:04;50.77;;;25.70;;
4563;SDS011;2294;51.818;8.484;2023-02-10T04:49:31;53.27;;;27.70;;
4563;SDS011;2294;51.818;8.484;2023-02-10T04:51:58;52.07;;;25.37;;
4563;SDS011;2294;51.818;8.484;2023-02-10T04:54:25;51.47;;;23.53;;
4563;SDS011;2294;51.818;8.484;2023-02-10T04:56:52;52.27;;;25.50;;
4563;SDS011;2294;51.818;8.484;2023-02-10T04:59:19;54.37;;;26.30;;
4563;SDS011;2294;51.818;8.484;2023-02-10T05:01:46;45.90;;;24.23;;
4563;SDS011;2294;51.818;8.484;2023-02-10T05:04:14;68.40;;;26.33;;
4563;SDS011;2294;51.818;8.484;2023-02-10T05:06:41;53.70;;;25.23;;
4563;SDS011;2294;51.818;8.484;2023-02-10T05:09:08;53.27;;;24.87;;
4563;SDS011;2294;51.818;8.484;2023-02-10T05:11:34;57.57;;;25.50;;
4563;SDS011;2294;51.818;8.484;2023-02-10T05:14:01;59.50;;;26.27;;
4563;SDS011;2294;51.818;8.484;2023-02-10T05:16:28;65.97;;;26.50;;
4563;SDS011;2294;51.818;8.484;2023-02-10T05:18:55;55.53;;;25.97;;
4563;SDS011;2294;51.818;8.484;2023-02-10T05:21:23;54.17;;;25.87;;
4563;SDS011;2294;51.818;8.484;2023-02-10T05:23:50;57.60;;;26.47;;
4563;SDS011;2294;51.818;8.484;2023-02-10T05:26:17;58.63;;;26.73;;
4563;SDS011;2294;51.818;8.484;2023-02-10T05:28:44;59.47;;;26.23;;
4563;SDS011;2294;51.818;8.484;2023-02-10T05:31:11;64.67;;;27.33;;
4563;SDS011;2294;51.818;8.484;2023-02-10T05:33:38;59.47;;;26.30;;
4563;SDS011;2294;51.818;8.484;2023-02-10T05:36:05;57.00;;;26.27;;
4563;SDS011;2294;51.818;8.484;2023-02-10T05:38:34;62.37;;;28.73;;
4563;SDS011;2294;51.818;8.484;2023-02-10T05:41:01;57.77;;;27.60;;
4563;SDS011;2294;51.818;8.484;2023-02-10T05:43:28;62.93;;;27.67;;
4563;SDS011;2294;51.818;8.484;2023-02-10T05:45:54;59.13;;;26.90;;
4563;SDS011;2294;51.818;8.484;2023-02-10T05:48:21;68.17;;;29.30;;
4563;SDS011;2294;51.818;8.484;2023-02-10T05:50:49;52.83;;;25.80;;
4563;SDS011;2294;51.818;8.484;2023-02-10T05:53:16;54.53;;;28.10;;
4563;SDS011;2294;51.818;8.484;2023-02-10T05:55:46;73.27;;;29.83;;
4563;SDS011;2294;51.818;8.484;2023-02-10T05:58:13;57.97;;;28.00;;
4563;SDS011;2294;51.818;8.484;2023-02-10T06:00:40;55.77;;;26.60;;
4563;SDS011;2294;51.818;8.484;2023-02-10T06:03:07;58.97;;;28.43;;
4563;SDS011;2294;51.818;8.484;2023-02-10T06:05:34;69.07;;;30.07;;
4563;SDS011;2294;51.818;8.484;2023-02-10T06:08:01;86.47;;;39.50;;
4563;SDS011;2294;51.818;8.484;2023-02-10T06:10:27;78.20;;;33.40;;
4563;SDS011;2294;51.818;8.484;2023-02-10T06:12:56;60.50;;;28.83;;
4563;SDS011;2294;51.818;8.484;2023-02-10T06:15:22;60.87;;;28.67;;
4563;SDS011;2294;51.818;8.484;2023-02-10T06:17:49;64.00;;;29.70;;
4563;SDS011;2294;51.818;8.484;2023-02-10T06:20:16;57.83;;;25.30;;
4563;SDS011;2294;51.818;8.484;2023-02-10T06:22:43;54.73;;;27.80;;
4563;SDS011;2294;51.818;8.484;2023-02-10T06:25:10;62.80;;;28.60;;
4563;SDS011;2294;51.818;8.484;2023-02-10T06:27:37;64.10;;;29.70;;
4563;SDS011;2294;51.818;8.484;2023-02-10T06:30:06;55.17;;;28.20;;
4563;SDS011;2294;51.818;8.484;2023-02-10T06:32:34;63.23;;;28.40;;
4563;SDS011;2294;51.818;8.484;2023-02-10T06:35:01;66.53;;;29.20;;
4563;SDS011;2294;51.818;8.484;2023-02-10T06:37:28;64.63;;;26.57;;
4563;SDS011;2294;51.818;8.484;2023-02-10T06:39:55;61.83;;;28.40;;
4563;SDS011;2294;51.818;8.484;2023-02-10T06:42:22;64.33;;;29.50;;
4563;SDS011;2294;51.818;8.484;2023-02-10T06:44:49;55.90;;;28.80;;
4563;SDS011;2294;51.818;8.484;2023-02-10T06:47:18;68.27;;;26.50;;
4563;SDS011;2294;51.818;8.484;2023-02-10T06:49:44;63.53;;;29.23;;
4563;SDS011;2294;51.818;8.484;2023-02-10T06:52:11;64.20;;;29.03;;
4563;SDS011;2294;51.818;8.484;2023-02-10T06:54:38;59.97;;;30.83;;
4563;SDS011;2294;51.818;8.484;2023-02-10T06:57:06;62.37;;;28.67;;
4563;SDS011;2294;51.818;8.484;2023-02-10T06:59:33;60.50;;;27.73;;
4563;SDS011;2294;51.818;8.484;2023-02-10T07:02:00;63.17;;;29.40;;
4563;SDS011;2294;51.818;8.484;2023-02-10T07:04:30;80.93;;;31.43;;
4563;SDS011;2294;51.818;8.484;2023-02-10T07:06:58;65.13;;;29.97;;
4563;SDS011;2294;51.818;8.484;2023-02-10T07:09:25;69.87;;;30.00;;
4563;SDS011;2294;51.818;8.484;2023-02-10T07:11:52;77.07;;;31.90;;
4563;SDS011;2294;51.818;8.484;2023-02-10T07:14:19;76.73;;;32.23;;
4563;SDS011;2294;51.818;8.484;2023-02-10T07:16:46;62.43;;;28.17;;
4563;SDS011;2294;51.818;8.484;2023-02-10T07:19:13;76.57;;;31.67;;
4563;SDS011;2294;51.818;8.484;2023-02-10T07:21:41;66.60;;;30.97;;
4563;SDS011;2294;51.818;8.484;2023-02-10T07:24:08;76.37;;;31.37;;
4563;SDS011;2294;51.818;8.484;2023-02-10T07:26:35;74.00;;;32.57;;
4563;SDS011;2294;51.818;8.484;2023-02-10T07:29:02;66.07;;;32.17;;
4563;SDS011;2294;51.818;8.484;2023-02-10T07:31:29;74.10;;;33.03;;
4563;SDS011;2294;51.818;8.484;2023-02-10T07:33:59;66.63;;;30.93;;
4563;SDS011;2294;51.818;8.484;2023-02-10T07:36:26;81.40;;;34.13;;
4563;SDS011;2294;51.818;8.484;2023-02-10T07:38:55;68.73;;;31.10;;
4563;SDS011;2294;51.818;8.484;2023-02-10T07:41:21;81.73;;;33.27;;
4563;SDS011;2294;51.818;8.484;2023-02-10T07:43:48;80.17;;;34.47;;
4563;SDS011;2294;51.818;8.484;2023-02-10T07:46:15;75.27;;;31.33;;
4563;SDS011;2294;51.818;8.484;2023-02-10T07:48:42;81.13;;;34.03;;
4563;SDS011;2294;51.818;8.484;2023-02-10T07:51:09;73.37;;;30.70;;
4563;SDS011;2294;51.818;8.484;2023-02-10T07:53:36;75.17;;;35.60;;
4563;SDS011;2294;51.818;8.484;2023-02-10T07:56:05;69.37;;;31.27;;
4563;SDS011;2294;51.818;8.484;2023-02-10T07:58:32;77.17;;;32.47;;
4563;SDS011;2294;51.818;8.484;2023-02-10T08:00:59;73.97;;;32.57;;
4563;SDS011;2294;51.818;8.484;2023-02-10T08:03:32;74.40;;;31.33;;
4563;SDS011;2294;51.818;8.484;2023-02-10T08:05:59;81.80;;;33.27;;
4563;SDS011;2294;51.818;8.484;2023-02-10T08:08:26;78.47;;;34.27;;
4563;SDS011;2294;51.818;8.484;2023-02-10T08:10:52;77.07;;;32.50;;
4563;SDS011;2294;51.818;8.484;2023-02-10T08:13:21;66.03;;;30.17;;
4563;SDS011;2294;51.818;8.484;2023-02-10T08:15:49;77.33;;;34.27;;
4563;SDS011;2294;51.818;8.484;2023-02-10T08:18:16;81.27;;;35.27;;
4563;SDS011;2294;51.818;8.484;2023-02-10T08:20:43;78.73;;;32.80;;
4563;SDS011;2294;51.818;8.484;2023-02-10T08:23:10;82.20;;;35.10;;
4563;SDS011;2294;51.818;8.484;2023-02-10T08:25:40;80.63;;;33.37;;
4563;SDS011;2294;51.818;8.484;2023-02-10T08:28:07;70.33;;;34.27;;
4563;SDS011;2294;51.818;8.484;2023-02-10T08:30:36;70.50;;;32.67;;
4563;SDS011;2294;51.818;8.484;2023-02-10T08:33:03;73.30;;;32.47;;
4563;SDS011;2294;51.818;8.484;2023-02-10T08:35:30;78.40;;;32.90;;
4563;SDS011;2294;51.818;8.484;2023-02-10T08:37:56;82.87;;;30.33;;
4563;SDS011;2294;51.818;8.484;2023-02-10T08:40:23;67.93;;;32.13;;
4563;SDS011;2294;51.818;8.484;2023-02-10T08:42:50;74.07;;;29.37;;
4563;SDS011;2294;51.818;8.484;2023-02-10T08:45:17;70.33;;;30.77;;
4563;SDS011;2294;51.818;8.484;2023-02-10T08:47:45;70.53;;;31.60;;
4563;SDS011;2294;51.818;8.484;2023-02-10T08:50:12;65.47;;;28.97;;
4563;SDS011;2294;51.818;8.484;2023-02-10T08:52:39;74.60;;;32.17;;
4563;SDS011;2294;51.818;8.484;2023-02-10T08:55:06;77.70;;;34.60;;
4563;SDS011;2294;51.818;8.484;2023-02-10T08:57:33;69.93;;;31.00;;
4563;SDS011;2294;51.818;8.484;2023-02-10T09:00:02;66.93;;;29.60;;
4563;SDS011;2294;51.818;8.484;2023-02-10T09:02:29;83.47;;;35.07;;
4563;SDS011;2294;51.818;8.484;2023-02-10T09:04:58;71.50;;;30.13;;
4563;SDS011;2294;51.818;8.484;2023-02-10T09:07:24;78.10;;;32.97;;
4563;SDS011;2294;51.818;8.484;2023-02-10T09:09:51;76.83;;;31.53;;
4563;SDS011;2294;51.818;8.484;2023-02-10T09:12:18;76.37;;;33.07;;
4563;SDS011;2294;51.818;8.484;2023-02-10T09:14:45;65.67;;;28.17;;
4563;SDS011;2294;51.818;8.484;2023-02-10T09:17:12;66.00;;;28.43;;
4563;SDS011;2294;51.818;8.484;2023-02-10T09:19:39;63.10;;;29.57;;
4563;SDS011;2294;51.818;8.484;2023-02-10T09:22:07;69.77;;;30.10;;
4563;SDS011;2294;51.818;8.484;2023-02-10T09:24:34;67.83;;;30.07;;
4563;SDS011;2294;51.818;8.484;2023-02-10T09:27:01;61.27;;;27.90;;
4563;SDS011;2294;51.818;8.484;2023-02-10T09:29:28;70.00;;;31.37;;
4563;SDS011;2294;51.818;8.484;2023-02-10T09:31:55;62.63;;;30.57;;
4563;SDS011;2294;51.818;8.484;2023-02-10T09:34:22;69.60;;;27.33;;
4563;SDS011;2294;51.818;8.484;2023-02-10T09:36:49;64.97;;;29.53;;
4563;SDS011;2294;51.818;8.484;2023-02-10T09:39:18;65.47;;;28.47;;
4563;SDS011;2294;51.818;8.484;2023-02-10T09:41:47;67.90;;;29.97;;
4563;SDS011;2294;51.818;8.484;2023-02-10T09:44:22;57.00;;;27.83;;
4563;SDS011;2294;51.818;8.484;2023-02-10T09:47:03;67.80;;;29.20;;
4563;SDS011;2294;51.818;8.484;2023-02-10T09:49:47;61.20;;;27.90;;
4563;SDS011;2294;51.818;8.484;2023-02-10T09:52:33;65.97;;;26.57;;
4563;SDS011;2294;51.818;8.484;2023-02-10T09:55:14;47.77;;;24.67;;
4563;SDS011;2294;51.818;8.484;2023-02-10T09:57:43;59.47;;;25.53;;
4563;SDS011;2294;51.818;8.484;2023-02-10T10:00:17;65.27;;;28.70;;
4563;SDS011;2294;51.818;8.484;2023-02-10T10:02:52;66.93;;;28.87;;
4563;SDS011;2294;51.818;8.484;2023-02-10T10:05:23;63.30;;;26.90;;
4563;SDS011;2294;51.818;8.484;2023-02-10T10:08:03;48.87;;;21.20;;
4563;SDS011;2294;51.818;8.484;2023-02-10T10:10:39;65.87;;;28.57;;
4563;SDS011;2294;51.818;8.484;2023-02-10T10:13:10;65.93;;;26.53;;
4563;SDS011;2294;51.818;8.484;2023-02-10T10:15:41;59.57;;;26.70;;
4563;SDS011;2294;51.818;8.484;2023-02-10T10:18:13;55.77;;;23.87;;
4563;SDS011;2294;51.818;8.484;2023-02-10T10:20:49;56.20;;;26.17;;
4563;SDS011;2294;51.818;8.484;2023-02-10T10:23:29;46.70;;;21.10;;
4563;SDS011;2294;51.818;8.484;2023-02-10T10:26:07;56.17;;;24.40;;
4563;SDS011;2294;51.818;8.484;2023-02-10T10:28:47;46.13;;;21.37;;
4563;SDS011;2294;51.818;8.484;2023-02-10T10:31:24;62.57;;;26.60;;
4563;SDS011;2294;51.818;8.484;2023-02-10T10:33:55;54.23;;;25.70;;
4563;SDS011;2294;51.818;8.484;2023-02-10T10:36:29;52.83;;;24.23;;
4563;SDS011;2294;51.818;8.484;2023-02-10T10:39:01;58.20;;;23.60;;
4563;SDS011;2294;51.818;8.484;2023-02-10T10:41:34;58.30;;;24.70;;
4563;SDS011;2294;51.818;8.484;2023-02-10T10:44:04;62.03;;;25.53;;
4563;SDS011;2294;51.818;8.484;2023-02-10T10:46:34;55.80;;;23.50;;
4563;SDS011;2294;51.818;8.484;2023-02-10T10:49:05;47.00;;;22.33;;
4563;SDS011;2294;51.818;8.484;2023-02-10T10:51:32;49.63;;;20.97;;
4563;SDS011;2294;51.818;8.484;2023-02-10T10:54:00;50.83;;;22.67;;
4563;SDS011;2294;51.818;8.484;2023-02-10T10:56:31;45.67;;;22.57;;
4563;SDS011;2294;51.818;8.484;2023-02-10T10:59:03;51.13;;;23.57;;
4563;SDS011;2294;51.818;8.484;2023-02-10T11:01:38;46.77;;;22.60;;
4563;SDS011;2294;51.818;8.484;2023-02-10T11:04:06;53.43;;;24.17;;
4563;SDS011;2294;51.818;8.484;2023-02-10T11:06:37;49.47;;;24.27;;
4563;SDS011;2294;51.818;8.484;2023-02-10T11:09:06;53.17;;;22.50;;
4563;SDS011;2294;51.818;8.484;2023-02-10T11:11:46;49.80;;;21.87;;
4563;SDS011;2294;51.818;8.484;2023-02-10T11:14:15;56.00;;;24.10;;
4563;SDS011;2294;51.818;8.484;2023-02-10T11:16:44;47.13;;;21.63;;
4563;SDS011;2294;51.818;8.484;2023-02-10T11:19:21;48.10;;;21.40;;
4563;SDS011;2294;51.818;8.484;2023-02-10T11:21:49;51.73;;;24.30;;
4563;SDS011;2294;51.818;8.484;2023-02-10T11:24:19;49.57;;;21.77;;
4563;SDS011;2294;51.818;8.484;2023-02-10T11:26:55;55.80;;;25.30;;
4563;SDS011;2294;51.818;8.484;2023-02-10T11:29:24;49.10;;;22.13;;
4563;SDS011;2294;51.818;8.484;2023-02-10T11:31:52;51.57;;;23.27;;
4563;SDS011;2294;51.818;8.484;2023-02-10T11:34:20;47.33;;;21.20;;
4563;SDS011;2294;51.818;8.484;2023-02-10T11:36:50;50.17;;;20.97;;
4563;SDS011;2294;51.818;8.484;2023-02-10T11:39:19;61.00;;;23.80;;
4563;SDS011;2294;51.818;8.484;2023-02-10T11:41:48;47.40;;;21.63;;
4563;SDS011;2294;51.818;8.484;2023-02-10T11:44:24;42.73;;;21.57;;
4563;SDS011;2294;51.818;8.484;2023-02-10T11:46:54;43.77;;;18.93;;
4563;SDS011;2294;51.818;8.484;2023-02-10T11:49:25;42.20;;;19.30;;
4563;SDS011;2294;51.818;8.484;2023-02-10T11:51:56;44.47;;;20.30;;
4563;SDS011;2294;51.818;8.484;2023-02-10T11:54:24;44.00;;;20.07;;
4563;SDS011;2294;51.818;8.484;2023-02-10T11:56:55;57.03;;;20.70;;
4563;SDS011;2294;51.818;8.484;2023-02-10T12:00:03;50.27;;;21.70;;
4563;SDS011;2294;51.818;8.484;2023-02-10T12:02:40;38.17;;;15.90;;
4563;SDS011;2294;51.818;8.484;2023-02-10T12:05:21;40.67;;;19.30;;
4563;SDS011;2294;51.818;8.484;2023-02-10T12:08:04;38.13;;;18.37;;
4563;SDS011;2294;51.818;8.484;2023-02-10T12:10:41;38.27;;;17.17;;
4563;SDS011;2294;51.818;8.484;2023-02-10T12:13:15;42.00;;;20.07;;
4563;SDS011;2294;51.818;8.484;2023-02-10T12:15:52;42.73;;;18.13;;
4563;SDS011;2294;51.818;8.484;2023-02-10T12:18:39;48.03;;;19.50;;
4563;SDS011;2294;51.818;8.484;2023-02-10T12:21:21;38.53;;;17.17;;
4563;SDS011;2294;51.818;8.484;2023-02-10T12:24:08;39.30;;;16.57;;
4563;SDS011;2294;51.818;8.484;2023-02-10T12:26:48;54.03;;;18.03;;
4563;SDS011;2294;51.818;8.484;2023-02-10T12:29:24;43.27;;;19.20;;
4563;SDS011;2294;51.818;8.484;2023-02-10T12:32:02;41.53;;;17.47;;
4563;SDS011;2294;51.818;8.484;2023-02-10T12:34:45;41.03;;;17.30;;
4563;SDS011;2294;51.818;8.484;2023-02-10T12:37:25;35.43;;;16.27;;
4563;SDS011;2294;51.818;8.484;2023-02-10T12:40:03;29.33;;;14.10;;
4563;SDS011;2294;51.818;8.484;2023-02-10T12:42:46;37.77;;;17.80;;
4563;SDS011;2294;51.818;8.484;2023-02-10T12:45:23;35.63;;;15.37;;
4563;SDS011;2294;51.818;8.484;2023-02-10T12:47:58;37.17;;;16.33;;
4563;SDS011;2294;51.818;8.484;2023-02-10T12:50:39;34.47;;;13.97;;
4563;SDS011;2294;51.818;8.484;2023-02-10T12:53:14;35.73;;;14.30;;
4563;SDS011;2294;51.818;8.484;2023-02-10T12:55:48;28.60;;;12.83;;
4563;SDS011;2294;51.818;8.484;2023-02-10T12:58:20;27.80;;;14.77;;
4563;SDS011;2294;51.818;8.484;2023-02-10T13:00:52;33.43;;;15.27;;
4563;SDS011;2294;51.818;8.484;2023-02-10T13:03:28;34.27;;;15.00;;
4563;SDS011;2294;51.818;8.484;2023-02-10T13:06:16;28.13;;;14.30;;
4563;SDS011;2294;51.818;8.484;2023-02-10T13:08:47;24.43;;;9.67;;
4563;SDS011;2294;51.818;8.484;2023-02-10T13:11:20;30.10;;;13.20;;
4563;SDS011;2294;51.818;8.484;2023-02-10T13:13:53;34.97;;;13.33;;
4563;SDS011;2294;51.818;8.484;2023-02-10T13:16:22;43.60;;;15.30;;
4563;SDS011;2294;51.818;8.484;2023-02-10T13:18:57;35.87;;;14.30;;
4563;SDS011;2294;51.818;8.484;2023-02-10T13:21:33;33.47;;;14.07;;
4563;SDS011;2294;51.818;8.484;2023-02-10T13:24:04;25.87;;;13.40;;
4563;SDS011;2294;51.818;8.484;2023-02-10T13:26:37;24.70;;;12.63;;
4563;SDS011;2294;51.818;8.484;2023-02-10T13:29:17;28.67;;;13.23;;
4563;SDS011;2294;51.818;8.484;2023-02-10T13:31:56;32.73;;;14.93;;
4563;SDS011;2294;51.818;8.484;2023-02-10T13:34:31;25.37;;;12.43;;
4563;SDS011;2294;51.818;8.484;2023-02-10T13:37:03;24.53;;;13.47;;
4563;SDS011;2294;51.818;8.484;2023-02-10T13:39:32;30.00;;;14.60;;
4563;SDS011;2294;51.818;8.484;2023-02-10T13:42:04;27.53;;;12.87;;
4563;SDS011;2294;51.818;8.484;2023-02-10T13:44:35;29.57;;;14.47;;
4563;SDS011;2294;51.818;8.484;2023-02-10T13:47:22;28.70;;;14.70;;
4563;SDS011;2294;51.818;8.484;2023-02-10T13:49:55;23.00;;;11.90;;
4563;SDS011;2294;51.818;8.484;2023-02-10T13:52:26;22.87;;;11.70;;
4563;SDS011;2294;51.818;8.484;2023-02-10T13:54:57;28.50;;;13.43;;
4563;SDS011;2294;51.818;8.484;2023-02-10T13:57:26;28.53;;;13.70;;
4563;SDS011;2294;51.818;8.484;2023-02-10T14:00:05;30.43;;;14.33;;
4563;SDS011;2294;51.818;8.484;2023-02-10T14:02:39;23.67;;;13.10;;
4563;SDS011;2294;51.818;8.484;2023-02-10T14:05:22;32.30;;;13.17;;
4563;SDS011;2294;51.818;8.484;2023-02-10T14:07:51;29.33;;;14.57;;
4563;SDS011;2294;51.818;8.484;2023-02-10T14:10:29;22.60;;;12.30;;
4563;SDS011;2294;51.818;8.484;2023-02-10T14:13:03;26.87;;;11.87;;
4563;SDS011;2294;51.818;8.484;2023-02-10T14:15:32;28.27;;;13.90;;
4563;SDS011;2294;51.818;8.484;2023-02-10T14:18:02;25.77;;;12.90;;
4563;SDS011;2294;51.818;8.484;2023-02-10T14:20:35;26.63;;;14.30;;
4563;SDS011;2294;51.818;8.484;2023-02-10T14:23:04;29.40;;;11.87;;
4563;SDS011;2294;51.818;8.484;2023-02-10T14:25:34;22.13;;;11.70;;
4563;SDS011;2294;51.818;8.484;2023-02-10T14:28:04;32.27;;;13.57;;
4563;SDS011;2294;51.818;8.484;2023-02-10T14:30:38;23.07;;;12.00;;
4563;SDS011;2294;51.818;8.484;2023-02-10T14:33:15;24.20;;;9.43;;
4563;SDS011;2294;51.818;8.484;2023-02-10T14:35:51;23.63;;;11.90;;
4563;SDS011;2294;51.818;8.484;2023-02-10T14:38:23;25.87;;;13.27;;
4563;SDS011;2294;51.818;8.484;2023-02-10T14:40:53;26.67;;;13.50;;
4563;SDS011;2294;51.818;8.484;2023-02-10T14:43:24;18.53;;;8.93;;
4563;SDS011;2294;51.818;8.484;2023-02-10T14:45:53;22.77;;;13.17;;
4563;SDS011;2294;51.818;8.484;2023-02-10T14:48:22;25.83;;;12.97;;
4563;SDS011;2294;51.818;8.484;2023-02-10T14:51:01;27.17;;;13.57;;
4563;SDS011;2294;51.818;8.484;2023-02-10T14:53:32;23.20;;;10.70;;
4563;SDS011;2294;51.818;8.484;2023-02-10T14:56:02;19.80;;;11.53;;
4563;SDS011;2294;51.818;8.484;2023-02-10T14:58:30;25.07;;;13.23;;
4563;SDS011;2294;51.818;8.484;2023-02-10T15:00:59;20.50;;;11.57;;
4563;SDS011;2294;51.818;8.484;2023-02-10T15:03:30;25.90;;;12.60;;
4563;SDS011;2294;51.818;8.484;2023-02-10T15:05:57;24.13;;;12.47;;
4563;SDS011;2294;51.818;8.484;2023-02-10T15:08:31;26.77;;;14.00;;